Red Rock, Oklahoma
Current Conditions -  °F | °C
As of 9:53 AM on Thursday 30 Oct 2014 (Local Time) from KPNC Reporting Station
Clear Clear  
Wind Chill: 53°   Ceiling: Unl
Heat Index: 53°   Visibility: 10mi
Dew Point: 42°   Wind: 6mph
Humidity: 66%   Direction: 260°W
Pressure: 30.12"   Gusts: NA
Location:  36.46°N, 97.18°W
Report Text: KPNC 301453Z AUTO 26005KT 10SM CLR 12/06 A3012 RMK AO2 SLP196 T01170056 51012
Loading
Personal Weather Stations






























Interactive Weather Map New forecast layout! Learn more

10-Day Weather Forecast

Advertisements
Track Severe Weather on mobile